createdAt,value
2019-02-20T00:02:25.602Z,12.97
2019-02-20T00:07:31.673Z,15.63
2019-02-20T00:12:37.961Z,18.30
2019-02-20T00:17:43.558Z,18.80
2019-02-20T00:22:49.225Z,19.40
2019-02-20T00:27:54.818Z,21.27
2019-02-20T00:33:00.959Z,19.60
2019-02-20T00:38:06.592Z,17.97
2019-02-20T00:43:12.296Z,22.23
2019-02-20T00:48:39.990Z,19.73
2019-02-20T00:53:52.540Z,19.23
2019-02-20T00:58:58.385Z,22.27
2019-02-20T01:04:05.313Z,23.47
2019-02-20T01:14:15.627Z,26.48
2019-02-20T01:19:21.276Z,25.27
2019-02-20T01:24:27.099Z,24.43
2019-02-20T01:29:33.197Z,22.97
2019-02-20T01:34:38.844Z,23.40
2019-02-20T01:39:44.730Z,21.70
2019-02-20T01:44:50.322Z,25.63
2019-02-20T01:49:56.229Z,25.17
2019-02-20T01:55:01.816Z,29.13
2019-02-20T02:00:08.659Z,22.10
2019-02-20T02:05:15.705Z,25.97
2019-02-20T02:10:21.973Z,20.90
2019-02-20T02:15:27.818Z,23.73
2019-02-20T02:20:33.543Z,21.87
2019-02-20T02:25:39.188Z,27.73
2019-02-20T02:30:45.244Z,24.60
2019-02-20T02:35:50.873Z,23.90
2019-02-20T02:40:56.543Z,21.77
2019-02-20T02:46:02.260Z,22.10
2019-02-20T02:51:08.005Z,26.30
2019-02-20T02:56:13.654Z,25.70
2019-02-20T03:01:19.658Z,26.30
2019-02-20T03:06:25.392Z,25.03
2019-02-20T03:11:31.110Z,27.97
2019-02-20T03:16:36.760Z,21.87
2019-02-20T03:21:42.663Z,26.57
2019-02-20T03:26:48.459Z,28.20
2019-02-20T03:31:54.223Z,29.23
2019-02-20T03:36:59.835Z,23.53
2019-02-20T03:42:05.565Z,28.77
2019-02-20T03:47:11.456Z,26.80
2019-02-20T03:52:18.124Z,25.77
2019-02-20T03:57:23.770Z,26.87
2019-02-20T04:02:29.677Z,26.53
2019-02-20T04:07:35.517Z,25.77
2019-02-20T04:12:41.225Z,27.13
2019-02-20T04:17:46.912Z,27.00
2019-02-20T04:22:52.717Z,29.17
2019-02-20T04:27:58.354Z,28.83
2019-02-20T04:33:04.509Z,30.60
2019-02-20T04:38:10.462Z,21.67
2019-02-20T04:43:16.097Z,25.27
2019-02-20T04:48:21.952Z,28.73
2019-02-20T04:53:27.616Z,24.93
2019-02-20T04:58:33.514Z,23.03
2019-02-20T05:03:39.266Z,20.07
2019-02-20T05:08:44.991Z,20.20
2019-02-20T05:13:50.810Z,18.83
2019-02-20T05:18:56.668Z,19.17
2019-02-20T05:24:02.346Z,16.17
2019-02-20T05:29:07.987Z,17.07
2019-02-20T05:34:13.593Z,16.17
2019-02-20T05:39:19.586Z,16.87
2019-02-20T05:44:25.266Z,15.47
2019-02-20T05:49:30.983Z,17.73
2019-02-20T05:54:36.701Z,15.63
2019-02-20T05:59:43.048Z,14.97
2019-02-20T06:04:49.017Z,17.82
2019-02-20T06:09:54.671Z,15.63
2019-02-20T06:15:00.352Z,16.97
2019-02-20T06:20:06.179Z,17.90
2019-02-20T06:25:11.910Z,17.67
2019-02-20T06:30:17.566Z,18.10
2019-02-20T06:35:23.496Z,19.10
2019-02-20T06:40:29.232Z,22.27
2019-02-20T06:45:35.009Z,19.93
2019-02-20T06:50:40.787Z,20.10
2019-02-20T06:55:46.495Z,18.17
2019-02-20T07:00:52.078Z,19.43
2019-02-20T07:07:19.295Z,18.10
2019-02-20T07:13:10.199Z,20.13
2019-02-20T07:19:11.784Z,20.70
2019-02-20T07:25:13.213Z,16.07
2019-02-20T07:30:19.016Z,19.80
2019-02-20T07:35:24.645Z,20.20
2019-02-20T07:40:30.399Z,19.07
2019-02-20T07:45:36.067Z,16.40
2019-02-20T07:50:42.027Z,19.00
2019-02-20T07:55:47.700Z,19.07
2019-02-20T08:00:53.538Z,15.17
2019-02-20T08:05:59.484Z,16.10
2019-02-20T08:11:05.160Z,16.10
2019-02-20T08:16:10.821Z,15.43
2019-02-20T08:21:16.781Z,15.73
2019-02-20T08:26:22.419Z,17.40
2019-02-20T08:31:28.057Z,16.80
2019-02-20T08:36:34.264Z,15.13
2019-02-20T08:41:39.927Z,12.73
2019-02-20T08:46:45.977Z,15.83
2019-02-20T08:51:51.585Z,11.43
2019-02-20T08:56:57.522Z,12.50
2019-02-20T09:02:03.397Z,12.87
2019-02-20T09:12:14.375Z,10.65
2019-02-20T09:17:20.054Z,10.23
2019-02-20T09:22:25.699Z,8.87
2019-02-20T09:27:31.944Z,12.20
2019-02-20T09:32:37.627Z,10.50
2019-02-20T09:37:43.458Z,14.10
2019-02-20T09:42:49.646Z,13.87
2019-02-20T09:47:55.303Z,14.20
2019-02-20T09:53:01.071Z,14.43
2019-02-20T09:58:07.058Z,13.40
2019-02-20T10:03:13.440Z,9.00
2019-02-20T10:08:19.237Z,13.50
2019-02-20T10:13:24.851Z,13.10
2019-02-20T10:18:30.616Z,13.87
2019-02-20T10:23:36.799Z,13.80
2019-02-20T10:28:43.227Z,13.93
2019-02-20T10:33:49.249Z,14.07
2019-02-20T10:38:54.881Z,12.37
2019-02-20T10:44:00.905Z,13.03
2019-02-20T10:49:06.967Z,12.23
2019-02-20T10:54:12.922Z,12.43
2019-02-20T10:59:18.866Z,13.07
2019-02-20T11:04:25.086Z,13.58
2019-02-20T11:09:31.914Z,12.73
2019-02-20T11:14:38.051Z,11.63
2019-02-20T11:19:43.688Z,13.30
2019-02-20T11:24:49.733Z,11.13
2019-02-20T11:29:56.027Z,9.85
2019-02-20T11:35:02.211Z,12.33
2019-02-20T11:40:08.892Z,12.90
2019-02-20T11:45:15.085Z,10.60
2019-02-20T11:50:21.223Z,6.53
2019-02-20T11:55:27.044Z,5.90
2019-02-20T12:00:32.754Z,6.43
2019-02-20T12:05:38.695Z,6.60
2019-02-20T12:10:45.006Z,6.70
2019-02-20T12:15:50.635Z,7.07
2019-02-20T12:20:56.914Z,6.58
2019-02-20T12:26:02.872Z,6.27
2019-02-20T12:31:08.871Z,5.87
2019-02-20T12:36:14.597Z,5.63
2019-02-20T12:41:20.453Z,6.00
2019-02-20T12:46:26.084Z,4.60
2019-02-20T12:51:32.065Z,5.10
2019-02-20T12:56:43.866Z,6.70
2019-02-20T13:01:45.959Z,5.17
2019-02-20T13:06:59.223Z,5.77
2019-02-20T13:11:59.466Z,4.97
2019-02-20T13:17:06.153Z,5.70
2019-02-20T13:22:11.777Z,4.97
2019-02-20T13:27:22.706Z,6.07
2019-02-20T13:32:25.609Z,6.93
2019-02-20T13:37:31.302Z,5.37
2019-02-20T13:42:37.570Z,7.00
2019-02-20T13:47:43.607Z,7.67
2019-02-20T13:52:52.387Z,5.90
2019-02-20T13:57:57.182Z,7.23
2019-02-20T14:03:03.499Z,6.50
2019-02-20T14:08:09.229Z,6.57
2019-02-20T14:13:14.876Z,5.93
2019-02-20T14:18:20.922Z,6.03
2019-02-20T14:23:26.692Z,4.87
2019-02-20T14:28:32.719Z,6.03
2019-02-20T14:33:38.984Z,4.80
2019-02-20T14:38:45.270Z,4.83
2019-02-20T14:43:50.910Z,4.07
2019-02-20T14:48:56.882Z,4.20
2019-02-20T14:54:02.910Z,4.00
2019-02-20T14:59:08.608Z,4.33
2019-02-20T15:04:14.514Z,3.20
2019-02-20T15:09:21.427Z,3.73
2019-02-20T15:14:27.560Z,4.10
2019-02-20T15:19:33.252Z,3.27
2019-02-20T15:24:38.877Z,4.30
2019-02-20T15:29:45.331Z,3.20
2019-02-20T15:34:51.303Z,4.13
2019-02-20T15:39:57.305Z,3.97
2019-02-20T15:45:03.453Z,3.60
2019-02-20T15:50:10.965Z,3.97
2019-02-20T15:55:17.037Z,3.97
2019-02-20T16:00:24.685Z,4.65
2019-02-20T16:05:31.426Z,4.80
2019-02-20T16:10:37.246Z,5.13
2019-02-20T16:15:43.183Z,5.37
2019-02-20T16:20:49.085Z,5.83
2019-02-20T16:25:55.150Z,5.87
2019-02-20T16:31:00.891Z,6.97
2019-02-20T16:36:06.825Z,4.63
2019-02-20T16:41:13.101Z,5.15
2019-02-20T16:46:19.095Z,5.70
2019-02-20T16:51:24.735Z,6.83
2019-02-20T16:56:30.840Z,6.13
2019-02-20T17:01:36.433Z,6.87
2019-02-20T17:06:42.442Z,6.73
2019-02-20T17:11:48.847Z,6.63
2019-02-20T17:16:54.631Z,6.33
2019-02-20T17:22:00.342Z,7.30
2019-02-20T17:27:06.418Z,7.80
2019-02-20T17:32:12.898Z,7.80
2019-02-20T17:37:18.918Z,8.23
2019-02-20T17:42:24.837Z,9.03
2019-02-20T17:47:30.826Z,8.57
2019-02-20T17:52:36.889Z,6.97
2019-02-20T17:57:42.964Z,9.13
2019-02-20T18:02:49.430Z,9.03
2019-02-20T18:07:55.509Z,7.20
2019-02-20T18:13:01.645Z,9.27
2019-02-20T18:18:07.648Z,10.43
2019-02-20T18:23:13.324Z,9.07
2019-02-20T18:28:24.376Z,9.93
2019-02-20T18:33:26.819Z,12.30
2019-02-20T18:38:32.971Z,13.10
2019-02-20T18:43:39.146Z,12.57
2019-02-20T18:48:44.804Z,12.83
2019-02-20T18:53:50.835Z,11.13
2019-02-20T18:58:56.518Z,12.67
2019-02-20T19:04:02.492Z,10.20
2019-02-20T19:09:25.624Z,11.73
2019-02-20T19:15:06.528Z,12.57
2019-02-20T19:21:31.704Z,12.13
2019-02-20T19:27:43.007Z,12.47
2019-02-20T19:33:41.097Z,12.77
2019-02-20T19:39:23.277Z,11.20
2019-02-20T19:45:18.246Z,10.33
2019-02-20T19:51:02.526Z,8.17
2019-02-20T19:56:48.318Z,10.73
2019-02-20T20:03:21.769Z,9.13
2019-02-20T20:09:02.560Z,9.83
2019-02-20T20:14:45.334Z,7.40
2019-02-20T20:20:23.244Z,9.73
2019-02-20T20:26:13.398Z,10.43
2019-02-20T20:32:13.544Z,10.70
2019-02-20T20:38:10.960Z,10.97
2019-02-20T20:44:01.016Z,10.17
2019-02-20T20:50:22.779Z,10.03
2019-02-20T20:56:41.333Z,10.03
2019-02-20T21:02:10.548Z,10.03
2019-02-20T21:08:14.004Z,10.17
2019-02-20T21:14:30.096Z,10.67
2019-02-20T21:20:49.508Z,10.20
2019-02-20T21:26:39.504Z,10.30
2019-02-20T21:32:31.492Z,13.17
2019-02-20T21:38:51.998Z,16.73
2019-02-20T21:44:57.623Z,15.90
2019-02-20T21:51:37.823Z,17.80
2019-02-20T21:57:14.932Z,15.90
2019-02-20T22:03:22.872Z,20.48
2019-02-20T22:09:32.227Z,18.37
2019-02-20T22:15:18.053Z,20.07
2019-02-20T22:21:32.334Z,21.63
2019-02-20T22:27:20.395Z,23.67
2019-02-20T22:33:38.633Z,21.48
2019-02-20T22:39:46.196Z,17.60
2019-02-20T22:46:02.651Z,22.60
2019-02-20T22:51:48.336Z,22.77
2019-02-20T22:57:49.814Z,21.97
2019-02-20T23:03:38.785Z,22.17
2019-02-20T23:09:43.211Z,25.40
2019-02-20T23:15:01.116Z,24.97
2019-02-20T23:20:07.192Z,24.57
2019-02-20T23:25:12.828Z,20.73
2019-02-20T23:30:18.782Z,27.13
2019-02-20T23:35:24.816Z,23.60
2019-02-20T23:40:30.486Z,24.63
2019-02-20T23:45:36.174Z,24.80
2019-02-20T23:50:41.936Z,23.77
2019-02-20T23:55:48.023Z,23.73
